createdAt,value
2023-02-12T00:00:02.694Z,3.80
2023-02-12T00:02:42.298Z,3.30
2023-02-12T00:05:09.230Z,3.70
2023-02-12T00:07:36.397Z,3.60
2023-02-12T00:10:04.066Z,3.50
2023-02-12T00:12:31.763Z,3.50
2023-02-12T00:14:59.097Z,3.00
2023-02-12T00:17:26.189Z,2.60
2023-02-12T00:19:53.074Z,2.70
2023-02-12T00:22:19.955Z,3.10
2023-02-12T00:24:46.890Z,3.20
2023-02-12T00:27:13.783Z,2.90
2023-02-12T00:29:41.544Z,3.00
2023-02-12T00:32:08.851Z,2.90
2023-02-12T00:34:37.397Z,2.70
2023-02-12T00:37:04.270Z,2.60
2023-02-12T00:39:31.608Z,2.90
2023-02-12T00:41:58.493Z,3.10
2023-02-12T00:44:25.645Z,2.60
2023-02-12T00:46:52.686Z,2.10
2023-02-12T00:49:20.504Z,1.90
2023-02-12T00:51:47.485Z,2.30
2023-02-12T00:54:14.747Z,2.10
2023-02-12T00:56:41.872Z,2.20
2023-02-12T00:59:08.726Z,2.10
2023-02-12T01:01:40.961Z,1.80
2023-02-12T01:04:09.088Z,1.70
2023-02-12T01:06:36.100Z,1.80
2023-02-12T01:09:03.352Z,1.90
2023-02-12T01:11:30.368Z,1.90
2023-02-12T01:13:57.232Z,1.70
2023-02-12T01:16:26.274Z,1.40
2023-02-12T01:18:55.993Z,1.50
2023-02-12T01:21:28.042Z,2.20
2023-02-12T01:23:55.355Z,1.90
2023-02-12T01:26:22.568Z,1.80
2023-02-12T01:28:58.625Z,1.80
2023-02-12T01:31:29.542Z,1.70
2023-02-12T01:33:58.077Z,1.70
2023-02-12T01:36:27.412Z,1.50
2023-02-12T01:38:54.933Z,1.70
2023-02-12T01:41:27.531Z,1.80
2023-02-12T01:44:19.410Z,1.50
2023-02-12T01:46:56.211Z,0.90
2023-02-12T01:49:36.230Z,0.80
2023-02-12T01:52:05.435Z,0.90
2023-02-12T01:54:33.823Z,1.20
2023-02-12T01:57:02.817Z,1.00
2023-02-12T01:59:30.586Z,0.90
2023-02-12T02:01:58.429Z,0.80
2023-02-12T02:04:28.309Z,0.90
2023-02-12T02:07:00.020Z,0.90
2023-02-12T02:09:27.315Z,0.90
2023-02-12T02:12:14.532Z,0.90
2023-02-12T02:14:41.586Z,0.80
2023-02-12T02:17:08.570Z,0.80
2023-02-12T02:19:47.939Z,1.10
2023-02-12T02:22:24.596Z,1.00
2023-02-12T02:25:08.026Z,0.40
2023-02-12T02:27:56.935Z,0.50
2023-02-12T02:30:45.581Z,0.40
2023-02-12T02:33:39.196Z,0.50
2023-02-12T02:36:28.809Z,0.40
2023-02-12T02:38:57.356Z,0.40
2023-02-12T02:41:46.837Z,0.40
2023-02-12T02:44:23.928Z,0.40
2023-02-12T02:46:51.999Z,0.40
2023-02-12T02:49:41.545Z,0.40
2023-02-12T02:52:11.089Z,0.30
2023-02-12T02:54:46.013Z,0.30
2023-02-12T02:57:15.476Z,0.30
2023-02-12T02:59:45.297Z,0.30
2023-02-12T03:02:18.697Z,0.30
2023-02-12T03:04:47.072Z,0.20
2023-02-12T03:07:17.301Z,0.20
2023-02-12T03:09:47.276Z,0.30
2023-02-12T03:12:17.322Z,0.40
2023-02-12T03:14:55.970Z,0.30
2023-02-12T03:17:29.211Z,0.30
2023-02-12T03:20:18.504Z,0.20
2023-02-12T03:22:53.459Z,0.10
2023-02-12T03:25:54.408Z,0.50
2023-02-12T03:28:31.646Z,0.20
2023-02-12T03:31:08.192Z,0.30
2023-02-12T03:33:44.662Z,0.40
2023-02-12T03:38:49.546Z,0.10
2023-02-12T03:41:43.705Z,0.30
2023-02-12T03:44:36.903Z,0.30
2023-02-12T03:47:39.114Z,0.20
2023-02-12T03:50:27.229Z,0.20
2023-02-12T03:52:54.306Z,0.20
2023-02-12T03:55:21.093Z,0.50
2023-02-12T03:57:54.457Z,0.20
2023-02-12T04:00:23.318Z,0.30
2023-02-12T04:02:51.904Z,0.40
2023-02-12T04:05:24.933Z,0.40
2023-02-12T04:07:53.177Z,0.50
2023-02-12T04:10:46.485Z,0.30
2023-02-12T04:13:19.598Z,0.30
2023-02-12T04:15:49.203Z,0.30
2023-02-12T04:18:26.866Z,0.30
2023-02-12T04:21:20.646Z,0.30
2023-02-12T04:23:59.815Z,0.40
2023-02-12T04:26:56.151Z,0.50
2023-02-12T04:29:32.433Z,0.20
2023-02-12T04:32:04.673Z,0.40
2023-02-12T04:34:45.742Z,0.40
2023-02-12T04:37:18.383Z,0.10
2023-02-12T04:39:45.237Z,0.30
2023-02-12T04:42:12.957Z,0.20
2023-02-12T04:44:42.826Z,0.20
2023-02-12T04:47:13.869Z,0.40
2023-02-12T04:49:40.759Z,0.30
2023-02-12T04:52:08.249Z,0.40
2023-02-12T04:54:36.343Z,0.20
2023-02-12T04:57:03.595Z,0.20
2023-02-12T04:59:31.996Z,0.20
2023-02-12T05:01:58.989Z,0.30
2023-02-12T05:04:26.690Z,0.30
2023-02-12T05:06:53.606Z,0.40
2023-02-12T05:09:20.658Z,0.30
2023-02-12T05:11:48.424Z,0.30
2023-02-12T05:14:15.937Z,0.30
2023-02-12T05:16:42.939Z,0.30
2023-02-12T05:19:10.061Z,0.50
2023-02-12T05:21:38.036Z,0.20
2023-02-12T05:24:05.637Z,0.30
2023-02-12T05:26:33.076Z,0.50
2023-02-12T05:29:00.398Z,0.20
2023-02-12T05:31:27.385Z,0.40
2023-02-12T05:33:54.291Z,0.40
2023-02-12T05:36:23.017Z,0.50
2023-02-12T05:38:50.239Z,0.60
2023-02-12T05:41:19.356Z,0.30
2023-02-12T05:43:49.464Z,0.20
2023-02-12T05:46:18.088Z,0.20
2023-02-12T05:48:45.108Z,0.40
2023-02-12T05:51:14.106Z,0.30
2023-02-12T05:53:41.792Z,0.30
2023-02-12T05:56:20.714Z,0.80
2023-02-12T05:58:51.091Z,0.30
2023-02-12T06:01:20.275Z,0.40
2023-02-12T06:03:47.490Z,0.50
2023-02-12T06:06:16.821Z,0.50
2023-02-12T06:08:44.285Z,0.20
2023-02-12T06:11:13.580Z,0.50
2023-02-12T06:13:40.737Z,0.50
2023-02-12T06:16:28.441Z,0.30
2023-02-12T06:18:56.080Z,0.40
2023-02-12T06:21:26.871Z,0.80
2023-02-12T06:23:54.370Z,0.30
2023-02-12T06:26:22.336Z,0.50
2023-02-12T06:28:49.330Z,0.40
2023-02-12T06:31:19.178Z,0.30
2023-02-12T06:33:46.837Z,0.30
2023-02-12T06:36:13.840Z,0.50
2023-02-12T06:38:41.568Z,0.80
2023-02-12T06:41:08.989Z,0.40
2023-02-12T06:43:38.235Z,0.30
2023-02-12T06:46:05.515Z,0.20
2023-02-12T06:48:33.119Z,0.40
2023-02-12T06:51:10.142Z,0.50
2023-02-12T06:53:39.617Z,0.40
2023-02-12T06:56:11.425Z,0.40
2023-02-12T06:58:40.246Z,0.80
2023-02-12T07:01:13.980Z,0.40
2023-02-12T07:03:41.787Z,0.40
2023-02-12T07:06:09.547Z,0.50
2023-02-12T07:08:37.302Z,0.50
2023-02-12T07:11:04.729Z,0.50
2023-02-12T07:13:34.917Z,0.60
2023-02-12T07:16:07.134Z,0.50
2023-02-12T07:18:39.429Z,0.40
2023-02-12T07:21:07.081Z,0.40
2023-02-12T07:23:34.313Z,0.50
2023-02-12T07:26:06.094Z,0.40
2023-02-12T07:28:38.634Z,0.50
2023-02-12T07:31:14.475Z,0.50
2023-02-12T07:33:42.391Z,0.60
2023-02-12T07:36:14.740Z,0.60
2023-02-12T07:38:41.612Z,0.50
2023-02-12T07:41:13.446Z,0.40
2023-02-12T07:43:41.725Z,0.40
2023-02-12T07:46:13.685Z,0.50
2023-02-12T07:48:40.701Z,0.60
2023-02-12T07:51:08.922Z,0.60
2023-02-12T07:53:36.113Z,0.70
2023-02-12T07:56:30.961Z,0.60
2023-02-12T07:59:04.378Z,0.60
2023-02-12T08:01:33.682Z,0.50
2023-02-12T08:04:04.292Z,0.50
2023-02-12T08:06:32.977Z,0.20
2023-02-12T08:09:01.296Z,0.70
2023-02-12T08:11:28.656Z,0.80
2023-02-12T08:13:59.692Z,0.70
2023-02-12T08:16:28.050Z,0.60
2023-02-12T08:18:56.896Z,0.40
2023-02-12T08:21:26.139Z,0.50
2023-02-12T08:23:56.926Z,0.70
2023-02-12T08:26:35.845Z,0.50
2023-02-12T08:29:05.125Z,0.40
2023-02-12T08:31:33.975Z,0.50
2023-02-12T08:34:01.271Z,0.80
2023-02-12T08:36:38.932Z,0.70
2023-02-12T08:39:09.212Z,0.70
2023-02-12T08:41:42.426Z,0.50
2023-02-12T08:44:10.057Z,0.60
2023-02-12T08:46:38.743Z,0.50
2023-02-12T08:49:09.577Z,0.60
2023-02-12T08:51:37.556Z,0.40
2023-02-12T08:54:06.108Z,0.30
2023-02-12T08:56:36.259Z,0.60
2023-02-12T08:59:04.960Z,0.50
2023-02-12T09:01:38.628Z,0.30
2023-02-12T09:04:05.976Z,0.50
2023-02-12T09:06:34.615Z,0.30
2023-02-12T09:09:02.685Z,0.50
2023-02-12T09:11:31.111Z,0.30
2023-02-12T09:13:59.800Z,0.30
2023-02-12T09:16:27.730Z,1.00
2023-02-12T09:18:55.112Z,0.40
2023-02-12T09:21:22.231Z,0.30
2023-02-12T09:23:50.340Z,0.70
2023-02-12T09:26:20.780Z,0.80
2023-02-12T09:28:50.076Z,1.00
2023-02-12T09:31:20.925Z,0.60
2023-02-12T09:33:51.689Z,1.50
2023-02-12T09:36:21.000Z,0.70
2023-02-12T09:38:48.522Z,1.00
2023-02-12T09:41:44.597Z,0.90
2023-02-12T09:44:35.364Z,0.50
2023-02-12T09:47:24.672Z,0.60
2023-02-12T09:50:13.786Z,0.50
2023-02-12T09:52:40.796Z,0.30
2023-02-12T09:55:12.222Z,4.40
2023-02-12T09:57:39.308Z,8.00
2023-02-12T10:00:35.787Z,1.30
2023-02-12T10:03:05.489Z,0.60
2023-02-12T10:05:41.271Z,0.60
2023-02-12T10:08:26.334Z,2.20
2023-02-12T10:10:58.457Z,0.80
2023-02-12T10:13:54.147Z,0.70
2023-02-12T10:16:22.137Z,0.50
2023-02-12T10:19:01.992Z,0.90
2023-02-12T10:21:40.586Z,1.70
2023-02-12T10:24:27.041Z,0.70
2023-02-12T10:26:56.044Z,2.00
2023-02-12T10:29:28.160Z,0.80
2023-02-12T10:34:34.433Z,1.40
2023-02-12T10:37:12.567Z,0.80
2023-02-12T10:39:44.909Z,0.40
2023-02-12T10:42:22.543Z,0.50
2023-02-12T10:44:49.662Z,0.40
2023-02-12T10:47:21.767Z,0.60
2023-02-12T10:49:59.715Z,1.10
2023-02-12T10:52:26.709Z,0.80
2023-02-12T10:54:54.015Z,1.20
2023-02-12T10:57:23.561Z,7.40
2023-02-12T10:59:53.300Z,1.40
2023-02-12T11:04:59.219Z,0.40
2023-02-12T11:07:26.923Z,1.40
2023-02-12T11:09:56.361Z,5.00
2023-02-12T11:12:37.920Z,1.80
2023-02-12T11:15:16.325Z,4.30
2023-02-12T11:17:44.824Z,3.20
2023-02-12T11:20:18.317Z,1.10
2023-02-12T11:23:09.015Z,4.60
2023-02-12T11:25:37.593Z,1.30
2023-02-12T11:28:18.865Z,0.70
2023-02-12T11:30:50.089Z,0.60
2023-02-12T11:33:21.394Z,0.80
2023-02-12T11:35:56.990Z,3.30
2023-02-12T11:38:38.248Z,2.40
2023-02-12T11:41:24.169Z,2.30
2023-02-12T11:43:52.149Z,1.30
2023-02-12T11:46:22.483Z,1.70
2023-02-12T11:48:50.552Z,0.70
2023-02-12T11:51:24.356Z,0.70
2023-02-12T11:53:53.407Z,3.20
2023-02-12T11:56:20.598Z,1.10
2023-02-12T11:58:48.604Z,1.50
2023-02-12T12:01:28.557Z,0.80
2023-02-12T12:04:12.161Z,0.60
2023-02-12T12:06:54.524Z,2.40
2023-02-12T12:09:30.394Z,0.60
2023-02-12T12:12:13.657Z,0.70
2023-02-12T12:15:29.582Z,0.40
2023-02-12T12:18:18.591Z,0.70
2023-02-12T12:23:45.155Z,0.40
2023-02-12T12:26:31.848Z,0.50
2023-02-12T12:29:11.799Z,0.70
2023-02-12T12:31:41.705Z,1.40
2023-02-12T12:34:10.808Z,0.90
2023-02-12T12:36:59.936Z,0.60
2023-02-12T12:39:48.134Z,6.00
2023-02-12T12:42:40.431Z,1.60
2023-02-12T12:45:28.935Z,3.20
2023-02-12T12:48:17.728Z,1.40
2023-02-12T12:51:08.098Z,0.60
2023-02-12T12:53:38.698Z,0.20
2023-02-12T12:56:12.586Z,0.40
2023-02-12T12:59:01.069Z,0.30
2023-02-12T13:04:20.604Z,0.90
2023-02-12T13:06:47.876Z,0.50
2023-02-12T13:09:37.557Z,1.50
2023-02-12T13:12:28.680Z,0.60
2023-02-12T13:15:21.622Z,0.70
2023-02-12T13:18:10.805Z,0.70
2023-02-12T13:20:50.094Z,2.20
2023-02-12T13:23:57.727Z,2.10
2023-02-12T13:26:33.966Z,1.00
2023-02-12T13:29:06.349Z,0.80
2023-02-12T13:34:36.180Z,0.70
2023-02-12T13:37:05.144Z,0.40
2023-02-12T13:39:36.593Z,0.70
2023-02-12T13:42:06.922Z,0.50
2023-02-12T13:44:34.342Z,0.80
2023-02-12T13:47:28.069Z,0.90
2023-02-12T13:50:23.168Z,0.70
2023-02-12T13:52:55.843Z,0.80
2023-02-12T13:55:26.688Z,0.70
2023-02-12T13:58:40.035Z,0.70
2023-02-12T14:01:47.037Z,0.60
2023-02-12T14:04:16.100Z,0.70
2023-02-12T14:06:54.105Z,0.80
2023-02-12T14:09:24.371Z,1.00
2023-02-12T14:11:51.853Z,1.00
2023-02-12T14:14:34.694Z,0.70
2023-02-12T14:17:39.023Z,0.80
2023-02-12T14:20:11.968Z,0.90
2023-02-12T14:22:42.642Z,0.90
2023-02-12T14:25:25.354Z,0.60
2023-02-12T14:28:18.322Z,0.70
2023-02-12T14:30:45.627Z,0.70
2023-02-12T14:33:24.075Z,0.70
2023-02-12T14:36:15.383Z,1.10
2023-02-12T14:38:47.693Z,0.80
2023-02-12T14:41:42.081Z,0.40
2023-02-12T14:44:31.309Z,0.70
2023-02-12T14:47:07.432Z,0.80
2023-02-12T14:52:23.865Z,1.30
2023-02-12T14:54:57.947Z,1.40
2023-02-12T14:57:34.945Z,1.10
2023-02-12T15:00:17.897Z,0.80
2023-02-12T15:02:49.833Z,1.20
2023-02-12T15:05:44.029Z,0.90
2023-02-12T15:08:19.983Z,1.30
2023-02-12T15:10:55.628Z,1.10
2023-02-12T15:13:38.351Z,0.90
2023-02-12T15:16:12.448Z,1.30
2023-02-12T15:18:53.338Z,1.00
2023-02-12T15:21:22.571Z,1.50
2023-02-12T15:24:07.400Z,0.90
2023-02-12T15:26:44.316Z,1.20
2023-02-12T15:29:44.201Z,1.40
2023-02-12T15:32:20.243Z,1.20
2023-02-12T15:34:48.617Z,1.00
2023-02-12T15:37:22.829Z,1.20
2023-02-12T15:39:54.255Z,1.00
2023-02-12T15:42:35.688Z,1.20
2023-02-12T15:45:15.463Z,1.30
2023-02-12T15:47:43.076Z,1.20
2023-02-12T15:50:13.711Z,1.50
2023-02-12T15:52:48.692Z,1.70
2023-02-12T15:55:20.496Z,1.50
2023-02-12T15:57:51.429Z,1.80
2023-02-12T16:00:42.474Z,1.70
2023-02-12T16:03:23.700Z,1.70
2023-02-12T16:05:50.747Z,2.20
2023-02-12T16:08:22.726Z,1.70
2023-02-12T16:10:52.643Z,2.10
2023-02-12T16:13:34.423Z,1.50
2023-02-12T16:16:08.587Z,1.80
2023-02-12T16:18:35.847Z,1.60
2023-02-12T16:21:11.855Z,1.70
2023-02-12T16:23:38.813Z,1.60
2023-02-12T16:26:05.746Z,1.70
2023-02-12T16:28:33.123Z,1.20
2023-02-12T16:31:11.585Z,1.50
2023-02-12T16:33:39.194Z,1.20
2023-02-12T16:36:28.507Z,1.30
2023-02-12T16:41:34.341Z,0.70
2023-02-12T16:44:02.846Z,1.00
2023-02-12T16:46:32.543Z,0.60
2023-02-12T16:49:00.719Z,1.10
2023-02-12T16:51:34.652Z,0.90
2023-02-12T16:54:03.473Z,0.90
2023-02-12T16:56:38.818Z,1.00
2023-02-12T16:59:05.971Z,0.80
2023-02-12T17:01:35.354Z,1.00
2023-02-12T17:04:05.969Z,1.10
2023-02-12T17:06:33.152Z,1.00
2023-02-12T17:09:01.036Z,1.10
2023-02-12T17:11:28.353Z,1.20
2023-02-12T17:13:56.956Z,1.00
2023-02-12T17:16:32.360Z,1.20
2023-02-12T17:21:38.500Z,1.10
2023-02-12T17:24:24.650Z,1.70
2023-02-12T17:26:52.471Z,1.50
2023-02-12T17:29:20.553Z,1.20
2023-02-12T17:31:48.435Z,1.30
2023-02-12T17:34:16.506Z,1.40
2023-02-12T17:36:43.398Z,2.20
2023-02-12T17:39:11.826Z,1.80
2023-02-12T17:41:39.414Z,1.40
2023-02-12T17:44:07.229Z,1.30
2023-02-12T17:46:34.830Z,1.60
2023-02-12T17:49:01.936Z,1.70
2023-02-12T17:51:29.662Z,1.30
2023-02-12T17:53:57.231Z,1.30
2023-02-12T17:56:25.829Z,1.30
2023-02-12T17:58:53.340Z,1.00
2023-02-12T18:01:21.863Z,1.70
2023-02-12T18:03:51.476Z,1.00
2023-02-12T18:06:27.090Z,1.00
2023-02-12T18:08:53.909Z,1.10
2023-02-12T18:11:21.270Z,1.00
2023-02-12T18:13:48.535Z,0.80
2023-02-12T18:16:15.637Z,1.10
2023-02-12T18:18:43.144Z,1.00
2023-02-12T18:21:11.111Z,0.90
2023-02-12T18:23:38.891Z,1.00
2023-02-12T18:26:11.649Z,1.00
2023-02-12T18:28:39.057Z,1.10
2023-02-12T18:31:06.555Z,1.00
2023-02-12T18:33:33.916Z,0.80
2023-02-12T18:36:01.952Z,1.00
2023-02-12T18:38:31.397Z,0.90
2023-02-12T18:41:00.522Z,1.10
2023-02-12T18:43:27.989Z,1.10
2023-02-12T18:45:55.534Z,0.80
2023-02-12T18:48:23.676Z,0.90
2023-02-12T18:50:53.415Z,0.90
2023-02-12T18:53:20.614Z,1.00
2023-02-12T18:55:48.222Z,1.10
2023-02-12T18:58:15.132Z,1.00
2023-02-12T19:00:42.370Z,1.00
2023-02-12T19:03:09.516Z,0.90
2023-02-12T19:05:36.323Z,0.80
2023-02-12T19:08:03.812Z,0.80
2023-02-12T19:10:34.554Z,0.80
2023-02-12T19:13:01.794Z,1.00
2023-02-12T19:15:32.967Z,1.00
2023-02-12T19:18:00.503Z,1.00
2023-02-12T19:20:27.912Z,1.20
2023-02-12T19:22:56.372Z,1.00
2023-02-12T19:25:23.579Z,0.70
2023-02-12T19:27:50.729Z,1.20
2023-02-12T19:30:17.495Z,1.00
2023-02-12T19:32:44.618Z,0.60
2023-02-12T19:35:11.437Z,0.80
2023-02-12T19:37:38.507Z,1.00
2023-02-12T19:40:06.764Z,1.00
2023-02-12T19:45:03.274Z,0.80
2023-02-12T19:47:30.810Z,1.10
2023-02-12T19:49:58.042Z,0.70
2023-02-12T19:52:26.275Z,1.50
2023-02-12T19:54:53.980Z,1.00
2023-02-12T19:57:20.798Z,0.70
2023-02-12T19:59:47.874Z,1.00
2023-02-12T20:02:15.216Z,0.60
2023-02-12T20:04:43.292Z,1.00
2023-02-12T20:07:10.440Z,1.10
2023-02-12T20:09:38.480Z,0.80
2023-02-12T20:12:05.761Z,0.70
2023-02-12T20:14:33.937Z,0.90
2023-02-12T20:17:01.777Z,0.70
2023-02-12T20:19:31.724Z,1.00
2023-02-12T20:22:01.755Z,0.70
2023-02-12T20:24:30.908Z,0.80
2023-02-12T20:26:59.333Z,0.90
2023-02-12T20:29:26.459Z,0.80
2023-02-12T20:31:54.130Z,0.90
2023-02-12T20:34:22.406Z,0.80
2023-02-12T20:36:51.387Z,0.70
2023-02-12T20:39:19.784Z,0.80
2023-02-12T20:41:46.908Z,0.80
2023-02-12T20:44:16.232Z,0.90
2023-02-12T20:46:47.451Z,0.80
2023-02-12T20:49:15.294Z,0.70
2023-02-12T20:51:42.362Z,0.80
2023-02-12T20:54:09.695Z,0.90
2023-02-12T20:56:36.739Z,0.90
2023-02-12T20:59:04.385Z,0.90
2023-02-12T21:01:37.839Z,0.90
2023-02-12T21:04:09.544Z,1.40
2023-02-12T21:06:36.896Z,0.90
2023-02-12T21:09:04.921Z,0.90
2023-02-12T21:11:32.860Z,1.10
2023-02-12T21:14:18.357Z,0.90
2023-02-12T21:16:45.710Z,1.60
2023-02-12T21:19:14.161Z,1.40
2023-02-12T21:21:41.937Z,1.00
2023-02-12T21:24:11.786Z,1.50
2023-02-12T21:26:38.897Z,2.10
2023-02-12T21:29:06.813Z,3.00
2023-02-12T21:31:36.763Z,3.00
2023-02-12T21:36:32.981Z,2.70
2023-02-12T21:39:01.011Z,2.80
2023-02-12T21:41:29.654Z,2.30
2023-02-12T21:44:01.249Z,2.10
2023-02-12T21:46:28.762Z,1.60
2023-02-12T21:48:55.870Z,2.10
2023-02-12T21:51:32.337Z,1.70
2023-02-12T21:54:00.954Z,1.50
2023-02-12T21:56:28.635Z,2.10
2023-02-12T21:58:55.771Z,2.10
2023-02-12T22:01:27.976Z,2.00
2023-02-12T22:03:55.133Z,1.80
2023-02-12T22:06:23.374Z,1.90
2023-02-12T22:08:50.696Z,1.70
2023-02-12T22:11:18.417Z,1.90
2023-02-12T22:13:45.611Z,5.70
2023-02-12T22:16:25.139Z,4.00
2023-02-12T22:18:55.525Z,3.70
2023-02-12T22:21:27.307Z,4.30
2023-02-12T22:23:54.667Z,2.80
2023-02-12T22:26:23.543Z,2.60
2023-02-12T22:28:55.589Z,2.30
2023-02-12T22:31:29.306Z,2.10
2023-02-12T22:33:58.075Z,2.70
2023-02-12T22:36:25.391Z,3.20
2023-02-12T22:38:54.052Z,2.80
2023-02-12T22:41:21.323Z,2.00
2023-02-12T22:43:48.577Z,1.60
2023-02-12T22:46:16.136Z,1.90
2023-02-12T22:48:46.861Z,1.90
2023-02-12T22:51:28.058Z,1.90
2023-02-12T22:53:55.933Z,2.80
2023-02-12T22:56:23.279Z,2.90
2023-02-12T22:58:54.408Z,2.40
2023-02-12T23:01:22.208Z,2.10
2023-02-12T23:03:49.469Z,1.60
2023-02-12T23:06:18.910Z,1.50
2023-02-12T23:08:51.204Z,2.10
2023-02-12T23:11:19.431Z,2.70
2023-02-12T23:13:46.379Z,2.60
2023-02-12T23:16:13.468Z,2.10
2023-02-12T23:18:40.459Z,2.50
2023-02-12T23:28:40.358Z,1.60
2023-02-12T23:31:07.494Z,1.20
2023-02-12T23:33:35.367Z,1.10
2023-02-12T23:36:02.779Z,1.00
2023-02-12T23:38:29.880Z,1.60
2023-02-12T23:40:57.413Z,1.20
2023-02-12T23:43:24.489Z,1.30
2023-02-12T23:45:51.492Z,1.00
2023-02-12T23:48:18.902Z,1.30
2023-02-12T23:50:48.718Z,1.30
2023-02-12T23:53:19.182Z,1.50
2023-02-12T23:55:46.312Z,1.40
2023-02-12T23:58:13.150Z,1.50
